Time;durP1;ratioP1;P1;durP2;ratioP2;P2;SDS_P1;SDS_P2;PMS_P1;PMS_P2;Temp;Humidity;BMP_temperature;BMP_pressure;BME280_temperature;BME280_humidity;BME280_pressure;Samples;Min_cycle;Max_cycle;Signal;HPM_P1;HPM_P2
2022/01/18 00:01:36;;;;;;;26.20;13.52;;;3.90;99.90;;;;;;5031459;28;20068;-67
2022/01/18 00:04:05;;;;;;;24.38;14.18;;;3.90;99.90;;;;;;5033392;28;20072;-67
2022/01/18 00:06:33;;;;;;;21.25;12.60;;;4.00;99.90;;;;;;5032860;28;20158;-68
2022/01/18 00:09:00;;;;;;;24.67;13.77;;;4.00;99.90;;;;;;5030547;28;20547;-68
2022/01/18 00:11:34;;;;;;;23.02;13.88;;;3.90;99.90;;;;;;5033414;28;20041;-67
2022/01/18 00:14:09;;;;;;;25.35;14.40;;;3.90;99.90;;;;;;5021327;28;20049;-67
2022/01/18 00:16:49;;;;;;;25.60;14.32;;;3.90;99.90;;;;;;5032442;28;20107;-67
2022/01/18 00:19:16;;;;;;;22.75;14.25;;;3.90;99.90;;;;;;5031351;28;20038;-67
2022/01/18 00:24:14;;;;;;;25.17;13.55;;;3.90;99.90;;;;;;5030544;28;20041;-66
2022/01/18 00:26:42;;;;;;;24.48;13.95;;;3.90;99.90;;;;;;5031114;28;20037;-67
2022/01/18 00:29:13;;;;;;;24.50;13.93;;;3.90;99.90;;;;;;5037284;28;20047;-68
2022/01/18 00:31:49;;;;;;;21.57;13.30;;;3.90;99.90;;;;;;5037241;28;20037;-67
2022/01/18 00:39:15;;;;;;;28.42;15.60;;;3.90;99.90;;;;;;5032240;28;20563;-67
2022/01/18 00:41:42;;;;;;;26.00;15.52;;;3.90;99.90;;;;;;5037571;28;20144;-67
2022/01/18 00:44:10;;;;;;;27.42;15.90;;;3.80;99.90;;;;;;5030094;28;20510;-67
2022/01/18 00:46:39;;;;;;;24.83;14.82;;;3.80;99.90;;;;;;5031078;28;20187;-68
2022/01/18 00:49:07;;;;;;;26.50;15.88;;;3.80;99.90;;;;;;5038332;28;20053;-68
2022/01/18 00:51:38;;;;;;;27.17;14.73;;;3.70;99.90;;;;;;5031101;28;20503;-67
2022/01/18 00:54:08;;;;;;;26.50;15.30;;;3.70;99.90;;;;;;5038515;28;20061;-66
2022/01/18 00:56:42;;;;;;;26.73;15.18;;;3.70;99.90;;;;;;5030076;28;20598;-68
2022/01/18 00:59:10;;;;;;;28.02;15.07;;;3.60;99.90;;;;;;5030199;28;20048;-67
2022/01/18 01:01:37;;;;;;;28.05;15.43;;;3.60;99.90;;;;;;5030537;28;20050;-67
2022/01/18 01:04:05;;;;;;;26.83;15.13;;;3.60;99.90;;;;;;5030503;28;20099;-67
2022/01/18 01:06:34;;;;;;;27.45;14.65;;;3.60;99.90;;;;;;5016037;28;20066;-69
2022/01/18 01:09:03;;;;;;;24.90;14.60;;;3.50;99.90;;;;;;5030389;28;20124;-67
2022/01/18 01:11:36;;;;;;;25.92;14.25;;;3.60;99.90;;;;;;5029779;28;20046;-67
2022/01/18 01:14:08;;;;;;;28.45;14.85;;;3.60;99.90;;;;;;5022777;28;20050;-68
2022/01/18 01:31:55;;;;;;;27.70;14.13;;;3.50;99.90;;;;;;5023195;28;20042;-67
2022/01/18 01:34:07;;;;;;;25.92;14.38;;;3.50;99.90;;;;;;5040121;28;20040;-68
2022/01/18 01:44:36;;;;;;;30.15;15.32;;;3.50;99.90;;;;;;5028747;28;20052;-67
2022/01/18 01:47:05;;;;;;;30.95;14.95;;;3.50;99.90;;;;;;5029795;28;20630;-67
2022/01/18 01:49:32;;;;;;;27.33;15.45;;;3.40;99.90;;;;;;5030684;28;20060;-67
2022/01/18 01:52:04;;;;;;;29.20;15.23;;;3.40;99.90;;;;;;5044365;28;20053;-67
2022/01/18 01:54:31;;;;;;;;;;;3.40;99.90;;;;;;5033022;28;20047;-67
2022/01/18 01:56:58;;;;;;;27.80;15.45;;;3.40;99.90;;;;;;5030301;28;19929;-66
2022/01/18 01:59:26;;;;;;;27.38;14.93;;;3.40;99.90;;;;;;5027662;28;20049;-67
2022/01/18 02:02:01;;;;;;;31.50;15.93;;;3.40;99.90;;;;;;5016082;28;20110;-67
2022/01/18 02:04:29;;;;;;;28.55;14.65;;;3.40;99.90;;;;;;5032367;28;20037;-67
2022/01/18 02:06:56;;;;;;;27.67;14.55;;;3.40;99.90;;;;;;5036424;28;20468;-67
2022/01/18 02:09:23;;;;;;;27.40;15.10;;;3.40;99.90;;;;;;5032000;28;20075;-67
2022/01/18 02:11:51;;;;;;;27.88;14.82;;;3.50;99.90;;;;;;5030439;28;20033;-68
2022/01/18 02:14:22;;;;;;;28.45;15.05;;;3.50;99.90;;;;;;5038172;28;20064;-67
2022/01/18 02:22:22;;;;;;;29.75;15.27;;;3.40;99.90;;;;;;5026745;28;20045;-68
2022/01/18 02:24:49;;;;;;;29.55;14.73;;;3.40;99.90;;;;;;5036729;28;20041;-66
2022/01/18 02:27:17;;;;;;;28.67;14.93;;;3.50;99.90;;;;;;5035912;28;20034;-67
2022/01/18 02:29:44;;;;;;;28.98;15.23;;;3.50;99.90;;;;;;5038186;28;20049;-65
2022/01/18 02:32:13;;;;;;;29.13;14.98;;;3.40;99.90;;;;;;5039247;28;20064;-66
2022/01/18 02:34:40;;;;;;;27.73;13.88;;;3.40;99.90;;;;;;5034348;28;20096;-66
2022/01/18 02:37:10;;;;;;;26.42;13.63;;;3.40;99.90;;;;;;5033494;28;20041;-67
2022/01/18 02:39:39;;;;;;;31.73;13.27;;;3.50;99.90;;;;;;5039066;28;20400;-70
2022/01/18 02:42:07;;;;;;;29.02;13.38;;;3.50;99.90;;;;;;5042113;28;20041;-66
2022/01/18 02:44:35;;;;;;;26.70;13.27;;;3.50;99.90;;;;;;5037886;28;20056;-67
2022/01/18 02:47:03;;;;;;;26.00;13.40;;;3.40;99.90;;;;;;5043328;28;20041;-67
2022/01/18 02:49:32;;;;;;;27.73;12.82;;;3.40;99.90;;;;;;5028762;28;20103;-67
2022/01/18 02:52:01;;;;;;;24.60;13.27;;;3.40;99.90;;;;;;5045125;28;20140;-67
2022/01/18 02:54:29;;;;;;;28.73;12.48;;;3.40;99.90;;;;;;5040424;28;20046;-67
2022/01/18 02:57:01;;;;;;;28.65;13.57;;;3.40;99.90;;;;;;5017781;28;20046;-67
2022/01/18 02:59:36;;;;;;;23.60;11.63;;;3.40;99.90;;;;;;5029340;28;20060;-67
2022/01/18 03:05:07;;;;;;;22.88;11.48;;;3.40;99.90;;;;;;5031718;28;20105;-67
2022/01/18 03:07:34;;;;;;;23.75;12.02;;;3.40;99.90;;;;;;5030726;28;20136;-67
2022/01/18 03:10:02;;;;;;;27.10;11.15;;;3.40;99.90;;;;;;5049934;28;20057;-67
2022/01/18 03:12:30;;;;;;;23.42;10.95;;;3.40;99.90;;;;;;5037612;28;20567;-67
2022/01/18 03:14:57;;;;;;;23.48;10.43;;;3.40;99.90;;;;;;5036436;28;20405;-67
2022/01/18 03:17:25;;;;;;;27.83;11.48;;;3.40;99.90;;;;;;5028745;28;20512;-68
2022/01/18 03:19:52;;;;;;;23.63;11.55;;;3.40;99.90;;;;;;5037163;28;20548;-67
2022/01/18 03:22:19;;;;;;;25.17;11.35;;;3.40;99.90;;;;;;5031445;28;20037;-67
2022/01/18 03:24:55;;;;;;;24.52;11.77;;;3.40;99.90;;;;;;5041011;28;20075;-68
2022/01/18 03:28:08;;;;;;;25.50;10.43;;;3.40;99.90;;;;;;5038021;28;20162;-67
2022/01/18 03:30:10;;;;;;;25.80;10.90;;;3.40;99.90;;;;;;5049849;28;20533;-67
2022/01/18 03:32:38;;;;;;;22.77;9.38;;;3.40;99.90;;;;;;5034785;28;20119;-67
2022/01/18 03:35:09;;;;;;;24.55;10.07;;;3.40;99.90;;;;;;5048623;28;20372;-67
2022/01/18 03:37:36;;;;;;;25.92;10.43;;;3.40;99.90;;;;;;5036222;28;20511;-67
2022/01/18 03:40:05;;;;;;;25.52;11.68;;;3.40;99.90;;;;;;5043505;28;20041;-67
2022/01/18 03:42:48;;;;;;;22.38;10.32;;;3.30;99.90;;;;;;5044672;28;20048;-67
2022/01/18 03:45:29;;;;;;;18.55;9.20;;;3.30;99.90;;;;;;5036748;28;20044;-67
2022/01/18 03:48:00;;;;;;;25.50;9.57;;;3.30;99.90;;;;;;5047373;28;20071;-67
2022/01/18 03:50:28;;;;;;;21.27;9.20;;;3.20;99.90;;;;;;5049466;28;20052;-67
2022/01/18 03:52:55;;;;;;;23.60;10.73;;;3.20;99.90;;;;;;5045080;28;20429;-67
2022/01/18 03:55:24;;;;;;;19.10;7.88;;;3.20;99.90;;;;;;5022684;28;20505;-68
2022/01/18 03:57:51;;;;;;;22.35;8.15;;;3.20;99.90;;;;;;5032045;28;20052;-67
2022/01/18 04:00:23;;;;;;;23.05;9.23;;;3.20;99.90;;;;;;5030831;28;20583;-67
2022/01/18 04:02:52;;;;;;;25.08;8.75;;;3.10;99.90;;;;;;5029446;28;20452;-67
2022/01/18 04:05:21;;;;;;;23.20;9.10;;;3.10;99.90;;;;;;5031461;28;20050;-68
2022/01/18 04:07:49;;;;;;;23.73;10.93;;;3.10;99.90;;;;;;5031542;28;20043;-68
2022/01/18 04:10:17;;;;;;;20.63;9.10;;;3.10;99.90;;;;;;5033291;28;20046;-67
2022/01/18 04:12:44;;;;;;;24.10;9.18;;;3.10;99.90;;;;;;5031094;28;20053;-67
2022/01/18 04:15:14;;;;;;;27.48;10.00;;;3.10;99.90;;;;;;5032984;28;20054;-67
2022/01/18 04:25:54;;;;;;;23.80;9.55;;;3.20;99.90;;;;;;5029606;28;20045;-67
2022/01/18 04:31:02;;;;;;;25.55;11.18;;;3.20;99.90;;;;;;5016819;28;20508;-67
2022/01/18 04:33:30;;;;;;;30.02;10.82;;;3.20;99.90;;;;;;5030115;28;20553;-67
2022/01/18 04:35:57;;;;;;;24.27;11.73;;;3.20;99.90;;;;;;5041814;28;20061;-66
2022/01/18 04:38:25;;;;;;;26.73;11.43;;;3.20;99.90;;;;;;5030686;28;20430;-67
2022/01/18 04:40:53;;;;;;;19.65;9.60;;;3.30;99.90;;;;;;5030644;28;20029;-67
2022/01/18 04:43:27;;;;;;;23.83;10.82;;;3.30;99.90;;;;;;5028979;28;20053;-67
2022/01/18 04:48:40;;;;;;;23.00;10.43;;;3.30;99.90;;;;;;5029900;28;20128;-68
2022/01/18 04:51:11;;;;;;;25.48;10.50;;;3.30;99.90;;;;;;5030102;28;20492;-67
2022/01/18 04:53:42;;;;;;;25.52;10.38;;;3.30;99.90;;;;;;5029493;28;20403;-67
2022/01/18 04:56:15;;;;;;;23.48;12.15;;;3.40;99.90;;;;;;5040604;28;20056;-67
2022/01/18 04:58:43;;;;;;;26.20;13.35;;;3.40;99.90;;;;;;5021467;28;20049;-67
2022/01/18 05:01:12;;;;;;;32.40;12.98;;;3.40;99.90;;;;;;5023461;28;20562;-68
2022/01/18 05:03:39;;;;;;;31.65;13.27;;;3.40;99.90;;;;;;5029138;28;20388;-67
2022/01/18 05:06:13;;;;;;;25.02;10.90;;;3.40;99.90;;;;;;5042164;28;20049;-67
2022/01/18 05:08:40;;;;;;;25.30;11.00;;;3.50;99.90;;;;;;5027581;28;20034;-67
2022/01/18 05:11:14;;;;;;;24.00;10.75;;;3.40;99.90;;;;;;5032506;28;20053;-68
2022/01/18 05:21:31;;;;;;;22.17;10.15;;;3.40;99.90;;;;;;5026910;28;20041;-67
2022/01/18 05:23:59;;;;;;;24.90;11.05;;;3.40;99.90;;;;;;5033691;28;20045;-67
2022/01/18 05:26:29;;;;;;;26.30;11.30;;;3.40;99.90;;;;;;5031824;28;20045;-67
2022/01/18 05:28:59;;;;;;;25.95;11.35;;;3.40;99.90;;;;;;5034521;28;20098;-67
2022/01/18 05:31:27;;;;;;;25.88;10.88;;;3.40;99.90;;;;;;5030586;28;20463;-67
2022/01/18 05:33:54;;;;;;;27.98;11.05;;;3.40;99.90;;;;;;5035395;28;20033;-67
2022/01/18 05:36:22;;;;;;;27.23;11.25;;;3.50;99.90;;;;;;5040303;28;20060;-68
2022/01/18 05:38:50;;;;;;;23.73;9.77;;;3.50;99.90;;;;;;5031203;28;20124;-67
2022/01/18 05:41:17;;;;;;;27.40;10.80;;;3.50;99.90;;;;;;5031576;28;20030;-67
2022/01/18 05:43:50;;;;;;;20.35;9.48;;;3.50;99.90;;;;;;5032248;28;20041;-67
2022/01/18 05:46:18;;;;;;;25.08;10.45;;;3.50;99.90;;;;;;5021779;28;20041;-68
2022/01/18 05:48:45;;;;;;;27.92;10.93;;;3.50;99.90;;;;;;5020273;28;20366;-67
2022/01/18 05:51:13;;;;;;;26.73;10.93;;;3.50;99.90;;;;;;5032241;28;20052;-67
2022/01/18 05:53:41;;;;;;;26.73;12.43;;;3.50;99.90;;;;;;5031255;28;20043;-68
2022/01/18 05:56:11;;;;;;;28.83;12.52;;;3.50;99.90;;;;;;5030202;28;20124;-68
2022/01/18 05:58:44;;;;;;;24.88;12.27;;;3.50;99.90;;;;;;5015105;28;20128;-67
2022/01/18 06:01:14;;;;;;;25.25;12.00;;;3.50;99.90;;;;;;5026107;28;20137;-67
2022/01/18 06:09:14;;;;;;;28.45;13.82;;;3.50;99.90;;;;;;5028319;28;20388;-68
2022/01/18 06:11:41;;;;;;;27.17;13.95;;;3.50;99.90;;;;;;5027334;28;20046;-67
2022/01/18 06:14:09;;;;;;;32.83;15.00;;;3.40;99.90;;;;;;5029353;28;20053;-68
2022/01/18 06:16:36;;;;;;;38.17;14.15;;;3.40;99.90;;;;;;5011252;28;20049;-66
2022/01/18 06:19:03;;;;;;;31.67;15.05;;;3.40;99.90;;;;;;5029178;28;20053;-68
2022/01/18 06:21:31;;;;;;;29.15;14.95;;;3.40;99.90;;;;;;5043946;28;20052;-68
2022/01/18 06:23:58;;;;;;;33.13;15.88;;;3.40;99.90;;;;;;5028471;28;20064;-67
2022/01/18 06:26:25;;;;;;;29.30;14.98;;;3.40;99.90;;;;;;5028524;28;20075;-67
2022/01/18 06:28:55;;;;;;;33.88;16.75;;;3.40;99.90;;;;;;5027353;28;20530;-68
2022/01/18 06:31:22;;;;;;;34.60;14.32;;;3.40;99.90;;;;;;5025969;28;20052;-68
2022/01/18 06:33:50;;;;;;;30.92;14.30;;;3.30;99.90;;;;;;5028759;28;20404;-67
2022/01/18 06:36:22;;;;;;;31.58;14.55;;;3.30;99.90;;;;;;5017705;28;20408;-68
2022/01/18 06:38:50;;;;;;;34.72;15.75;;;3.30;99.90;;;;;;5028668;28;20057;-68
2022/01/18 06:41:17;;;;;;;28.38;14.57;;;3.30;99.90;;;;;;5048193;28;20407;-67
2022/01/18 06:43:45;;;;;;;26.48;13.70;;;3.20;99.90;;;;;;5033703;28;20096;-67
2022/01/18 06:46:13;;;;;;;28.75;14.10;;;3.20;99.90;;;;;;5025868;28;20049;-68
2022/01/18 06:48:44;;;;;;;30.63;14.60;;;3.20;99.90;;;;;;5029257;28;20119;-68
2022/01/18 06:51:13;;;;;;;27.02;14.40;;;3.20;99.90;;;;;;5028470;28;20107;-68
2022/01/18 06:53:47;;;;;;;31.48;14.32;;;3.20;99.90;;;;;;5026321;28;20447;-67
2022/01/18 06:56:18;;;;;;;29.58;14.55;;;3.10;99.90;;;;;;5025626;28;20075;-67
2022/01/18 06:58:45;;;;;;;31.92;14.77;;;3.10;99.90;;;;;;5029701;28;20492;-68
2022/01/18 07:01:14;;;;;;;39.05;15.35;;;3.10;99.90;;;;;;5034003;28;20487;-68
2022/01/18 07:03:42;;;;;;;28.75;12.85;;;3.00;99.90;;;;;;5029366;28;20046;-67
2022/01/18 07:06:09;;;;;;;33.45;14.32;;;3.00;99.90;;;;;;5021505;28;20048;-67
2022/01/18 07:08:37;;;;;;;29.50;14.60;;;3.00;99.90;;;;;;5029120;28;20216;-68
2022/01/18 07:11:07;;;;;;;31.02;15.05;;;3.00;99.90;;;;;;5029376;28;20057;-67
2022/01/18 07:13:34;;;;;;;29.15;14.15;;;3.00;99.90;;;;;;5022424;28;20508;-68
2022/01/18 07:16:05;;;;;;;29.48;14.40;;;3.10;99.90;;;;;;5029029;28;20049;-67
2022/01/18 07:18:33;;;;;;;27.70;14.38;;;3.10;99.90;;;;;;5031454;28;20865;-67
2022/01/18 07:21:00;;;;;;;27.67;13.82;;;3.10;99.90;;;;;;5032051;28;20718;-67
2022/01/18 07:23:27;;;;;;;30.27;13.70;;;3.10;99.90;;;;;;5028017;28;20435;-68
2022/01/18 07:25:55;;;;;;;27.83;14.35;;;3.10;99.90;;;;;;5030984;28;20045;-67
2022/01/18 07:28:22;;;;;;;30.35;14.13;;;3.20;99.90;;;;;;5028057;28;20053;-67
2022/01/18 07:30:49;;;;;;;31.25;14.55;;;3.20;99.90;;;;;;5021477;28;20068;-68
2022/01/18 07:33:18;;;;;;;34.03;14.45;;;3.30;99.90;;;;;;5026994;28;20057;-68
2022/01/18 07:35:47;;;;;;;25.73;12.38;;;3.30;99.90;;;;;;5039066;28;20140;-69
2022/01/18 07:38:17;;;;;;;29.50;12.55;;;3.30;99.90;;;;;;5030582;28;20408;-68
2022/01/18 07:40:47;;;;;;;26.05;12.38;;;3.30;99.90;;;;;;5033942;28;20052;-68
2022/01/18 07:43:17;;;;;;;29.85;12.38;;;3.30;99.90;;;;;;5033903;28;20079;-67
2022/01/18 07:45:46;;;;;;;22.55;11.13;;;3.30;99.90;;;;;;5040562;28;20076;-67
2022/01/18 07:48:13;;;;;;;23.38;10.30;;;3.30;99.90;;;;;;5038792;28;20061;-68
2022/01/18 07:50:41;;;;;;;23.73;10.07;;;3.30;99.90;;;;;;5030410;28;20211;-68
2022/01/18 07:53:11;;;;;;;22.55;10.07;;;3.40;99.90;;;;;;5023433;28;20060;-67
2022/01/18 07:55:38;;;;;;;22.30;10.00;;;3.40;99.90;;;;;;5025090;28;20060;-67
2022/01/18 07:58:05;;;;;;;22.15;10.20;;;3.50;99.90;;;;;;5031463;28;20132;-68
2022/01/18 08:00:34;;;;;;;21.38;10.48;;;3.60;99.90;;;;;;5009463;28;20050;-68
2022/01/18 08:03:02;;;;;;;21.00;9.10;;;3.70;99.90;;;;;;5026137;28;20461;-66
2022/01/18 08:05:29;;;;;;;16.80;8.20;;;3.70;99.90;;;;;;5014222;28;20064;-70
2022/01/18 08:07:57;;;;;;;21.70;9.73;;;3.80;99.90;;;;;;5029046;28;20041;-68
2022/01/18 08:10:30;;;;;;;22.27;9.73;;;3.80;99.90;;;;;;5031322;28;20474;-67
2022/01/18 08:13:03;;;;;;;20.52;9.00;;;3.80;99.90;;;;;;5031401;28;20123;-66
2022/01/18 08:15:38;;;;;;;19.63;9.95;;;3.90;99.90;;;;;;5026154;28;20041;-67
2022/01/18 08:18:12;;;;;;;21.48;8.93;;;4.00;99.90;;;;;;5029242;28;20051;-68
2022/01/18 08:20:40;;;;;;;22.45;9.00;;;4.10;99.90;;;;;;5031121;28;20527;-67
2022/01/18 08:23:08;;;;;;;18.38;8.10;;;4.20;99.90;;;;;;5026340;28;20045;-67
2022/01/18 08:25:35;;;;;;;21.70;9.38;;;4.30;99.90;;;;;;5032751;28;20567;-68
2022/01/18 08:28:03;;;;;;;29.58;12.23;;;4.40;99.90;;;;;;5031958;28;20041;-68
2022/01/18 08:30:30;;;;;;;19.40;8.77;;;4.40;99.90;;;;;;5023558;28;20045;-67
2022/01/18 08:32:57;;;;;;;18.35;7.07;;;4.40;99.90;;;;;;5034264;28;20073;-68
2022/01/18 08:35:26;;;;;;;16.52;7.43;;;4.50;99.90;;;;;;5044188;28;20040;-67
2022/01/18 08:37:53;;;;;;;15.55;5.82;;;4.50;99.90;;;;;;5033262;28;20051;-68
2022/01/18 08:40:21;;;;;;;13.40;5.72;;;4.60;99.90;;;;;;5036520;28;20099;-68
2022/01/18 08:42:48;;;;;;;14.70;6.53;;;4.60;99.90;;;;;;5028269;28;20042;-66
2022/01/18 08:45:16;;;;;;;16.10;5.80;;;4.60;99.90;;;;;;5020347;28;20826;-69
2022/01/18 08:47:49;;;;;;;15.00;6.10;;;4.60;99.90;;;;;;5022515;28;20054;-69
2022/01/18 08:50:18;;;;;;;16.05;6.38;;;4.60;99.90;;;;;;5027960;28;20064;-69
2022/01/18 08:52:50;;;;;;;17.13;6.80;;;4.50;99.90;;;;;;5031858;28;20057;-67
2022/01/18 08:55:20;;;;;;;18.75;7.70;;;4.30;99.90;;;;;;5034311;28;20037;-66
2022/01/18 08:57:48;;;;;;;15.52;6.78;;;4.30;99.90;;;;;;5023609;28;20030;-67
2022/01/18 09:00:18;;;;;;;16.70;7.10;;;4.30;99.90;;;;;;5022862;28;20120;-68
2022/01/18 09:02:45;;;;;;;12.45;5.82;;;4.30;99.90;;;;;;5020272;28;20072;-67
2022/01/18 09:05:13;;;;;;;14.93;5.15;;;4.30;99.90;;;;;;5036832;28;20042;-67
2022/01/18 09:07:40;;;;;;;13.48;5.60;;;4.40;99.90;;;;;;5037291;28;20298;-68
2022/01/18 09:10:10;;;;;;;19.75;5.85;;;4.40;99.90;;;;;;5037645;28;20516;-67
2022/01/18 09:12:38;;;;;;;17.40;6.20;;;4.50;99.90;;;;;;5043898;28;20055;-67
2022/01/18 09:15:07;;;;;;;11.95;5.47;;;4.60;99.90;;;;;;5034210;28;20426;-68
2022/01/18 09:17:37;;;;;;;13.40;5.40;;;4.70;99.90;;;;;;5036010;28;20432;-68
2022/01/18 09:20:07;;;;;;;11.43;4.97;;;4.90;99.90;;;;;;5039092;28;20045;-67
2022/01/18 09:22:38;;;;;;;13.15;5.60;;;5.10;99.90;;;;;;5038965;28;20055;-67
2022/01/18 09:25:08;;;;;;;12.93;5.13;;;5.20;99.90;;;;;;5032471;28;20465;-67
2022/01/18 09:27:36;;;;;;;19.63;4.75;;;5.30;99.90;;;;;;5025710;28;20416;-67
2022/01/18 09:30:05;;;;;;;11.13;3.80;;;5.40;99.90;;;;;;5024915;28;20137;-67
2022/01/18 09:32:32;;;;;;;15.35;3.58;;;5.60;99.90;;;;;;5029190;28;20290;-66
2022/01/18 09:34:59;;;;;;;12.32;3.90;;;5.60;99.90;;;;;;5036554;28;20045;-68
2022/01/18 09:37:27;;;;;;;15.30;3.67;;;5.70;99.90;;;;;;5032660;28;20479;-68
2022/01/18 09:39:54;;;;;;;11.77;3.63;;;5.70;99.90;;;;;;5033212;28;20041;-69
2022/01/18 09:42:23;;;;;;;10.15;3.85;;;5.80;99.90;;;;;;5035881;28;20040;-67
2022/01/18 09:44:51;;;;;;;8.50;3.90;;;5.80;99.90;;;;;;5032595;28;20041;-67
2022/01/18 09:47:18;;;;;;;11.25;4.30;;;6.00;99.90;;;;;;5034043;28;20040;-68
2022/01/18 09:49:46;;;;;;;21.10;5.68;;;6.10;99.90;;;;;;5030812;28;20047;-67
2022/01/18 09:52:13;;;;;;;16.67;4.70;;;6.20;99.90;;;;;;5034755;28;20045;-68
2022/01/18 09:54:42;;;;;;;10.60;3.55;;;6.40;99.90;;;;;;5021980;28;20132;-67
2022/01/18 09:57:09;;;;;;;12.57;4.00;;;6.50;99.90;;;;;;5027170;28;20488;-67
2022/01/18 09:59:37;;;;;;;15.50;3.63;;;6.70;99.90;;;;;;5029299;28;20124;-68
2022/01/18 10:02:06;;;;;;;10.23;4.00;;;6.70;99.90;;;;;;5029000;28;20488;-68
2022/01/18 10:04:43;;;;;;;10.88;3.63;;;6.70;99.90;;;;;;5027082;28;20122;-68
2022/01/18 10:07:11;;;;;;;9.25;3.90;;;6.70;99.90;;;;;;5038533;28;20508;-68
2022/01/18 10:09:38;;;;;;;10.95;3.55;;;6.70;99.90;;;;;;5041805;28;20128;-68
2022/01/18 10:12:13;;;;;;;10.18;3.70;;;6.70;99.90;;;;;;5032842;28;20051;-68
2022/01/18 10:14:55;;;;;;;10.60;3.50;;;6.50;99.90;;;;;;5037243;28;20056;-67
2022/01/18 10:17:33;;;;;;;12.05;3.25;;;6.60;99.90;;;;;;5034472;28;20044;-67
2022/01/18 10:20:07;;;;;;;14.60;4.03;;;6.70;99.90;;;;;;5046888;28;20453;-67
2022/01/18 10:22:42;;;;;;;12.18;3.88;;;6.60;99.90;;;;;;5034624;28;20041;-68
2022/01/18 10:25:17;;;;;;;12.52;4.43;;;6.70;99.90;;;;;;5046071;28;20049;-67
2022/01/18 10:27:55;;;;;;;10.00;3.60;;;6.40;99.90;;;;;;5023695;28;20044;-67
2022/01/18 10:30:37;;;;;;;9.73;3.63;;;6.40;99.90;;;;;;5035851;28;20045;-67
2022/01/18 10:33:28;;;;;;;11.95;3.88;;;6.40;99.90;;;;;;5030261;28;20485;-68
2022/01/18 10:36:12;;;;;;;10.23;3.28;;;6.60;99.90;;;;;;5036539;28;20500;-67
2022/01/18 10:38:42;;;;;;;9.48;2.90;;;6.60;99.90;;;;;;5030473;28;20262;-67
2022/01/18 10:41:33;;;;;;;8.00;3.30;;;6.50;99.90;;;;;;5023231;28;20128;-67
2022/01/18 10:44:13;;;;;;;12.30;3.97;;;6.60;99.90;;;;;;5034395;28;20419;-67
2022/01/18 10:46:44;;;;;;;8.32;3.00;;;6.70;99.90;;;;;;5029408;28;20519;-68
2022/01/18 10:49:36;;;;;;;9.85;2.97;;;6.70;99.90;;;;;;5035133;28;20049;-68
2022/01/18 10:52:12;;;;;;;9.40;2.80;;;6.50;99.90;;;;;;5026255;28;20064;-67
2022/01/18 10:54:41;;;;;;;9.73;3.10;;;6.50;99.90;;;;;;5030141;28;20068;-68
2022/01/18 10:57:11;;;;;;;9.15;2.55;;;6.50;99.90;;;;;;5040431;28;20049;-67
2022/01/18 10:59:40;;;;;;;9.73;2.65;;;6.60;99.90;;;;;;5028002;28;20045;-67
2022/01/18 11:02:15;;;;;;;8.18;2.47;;;6.90;99.90;;;;;;5027061;28;20124;-68
2022/01/18 11:04:47;;;;;;;7.70;2.60;;;8.00;99.90;;;;;;5029117;28;20097;-67
2022/01/18 11:07:19;;;;;;;6.60;2.05;;;9.40;99.90;;;;;;5028008;28;20045;-68
2022/01/18 11:09:48;;;;;;;6.63;2.30;;;9.70;99.90;;;;;;5029300;28;20049;-68
2022/01/18 11:12:18;;;;;;;5.65;1.90;;;10.30;99.90;;;;;;5033966;28;20440;-68
2022/01/18 11:14:51;;;;;;;5.28;1.95;;;10.10;99.90;;;;;;5036572;28;20072;-68
2022/01/18 11:17:26;;;;;;;7.72;3.45;;;9.90;99.90;;;;;;5032084;28;20504;-67
2022/01/18 11:19:56;;;;;;;8.32;2.47;;;9.50;99.90;;;;;;5030089;28;20064;-68
2022/01/18 11:22:26;;;;;;;8.82;3.63;;;9.10;99.90;;;;;;5018240;28;20053;-68
2022/01/18 11:24:58;;;;;;;6.25;2.80;;;8.90;99.90;;;;;;5029439;28;20063;-67
2022/01/18 11:27:28;;;;;;;8.20;2.53;;;8.90;99.90;;;;;;5040341;28;20495;-68
2022/01/18 11:29:56;;;;;;;10.38;2.78;;;9.00;99.90;;;;;;5045133;28;20036;-67
2022/01/18 11:32:28;;;;;;;6.18;2.20;;;9.10;99.90;;;;;;5041341;28;20045;-67
2022/01/18 11:35:07;;;;;;;6.43;1.73;;;9.10;99.90;;;;;;5043561;28;20049;-68
2022/01/18 11:37:52;;;;;;;6.15;2.03;;;8.90;99.90;;;;;;5038192;28;20448;-68
2022/01/18 11:40:20;;;;;;;6.18;1.90;;;8.80;99.90;;;;;;5030348;28;20057;-66
2022/01/18 11:42:53;;;;;;;4.88;2.15;;;8.80;99.90;;;;;;5038380;28;20123;-67
2022/01/18 11:45:24;;;;;;;4.60;2.15;;;8.80;99.90;;;;;;5026689;28;20400;-66
2022/01/18 11:48:11;;;;;;;5.13;1.80;;;8.60;99.90;;;;;;5038925;28;20042;-66
2022/01/18 11:50:43;;;;;;;4.75;2.20;;;8.40;99.90;;;;;;5033223;28;20029;-66
2022/01/18 11:53:42;;;;;;;6.40;2.17;;;8.30;99.90;;;;;;5040174;28;20164;-67
2022/01/18 11:56:34;;;;;;;5.50;1.85;;;8.40;99.90;;;;;;5046678;28;20067;-68
2022/01/18 11:59:17;;;;;;;;;;;10.80;99.90;;;;;;5022050;28;20065;-67
2022/01/18 12:02:05;;;;;;;5.95;2.03;;;13.40;99.90;;;;;;5024391;28;19936;-67
2022/01/18 12:07:36;;;;;;;5.45;1.90;;;15.30;99.90;;;;;;5031397;28;20048;-68
2022/01/18 12:10:08;;;;;;;6.70;1.90;;;14.00;99.90;;;;;;5036599;28;20063;-67
2022/01/18 12:12:46;;;;;;;4.38;1.88;;;13.00;99.90;;;;;;5030002;28;20047;-67
2022/01/18 12:15:16;;;;;;;5.95;1.98;;;11.90;99.90;;;;;;5026167;28;20652;-67
2022/01/18 12:17:51;;;;;;;5.13;1.92;;;10.80;99.90;;;;;;5036690;28;20510;-68
2022/01/18 12:20:48;;;;;;;6.80;1.83;;;10.30;99.90;;;;;;5030347;28;20045;-67
2022/01/18 12:23:34;;;;;;;5.32;2.00;;;9.60;99.90;;;;;;5033364;28;20083;-67
2022/01/18 12:26:41;;;;;;;5.35;1.75;;;9.10;99.90;;;;;;5026701;28;20037;-66
2022/01/18 12:34:38;;;;;;;6.65;2.83;;;7.80;99.90;;;;;;5036438;28;20127;-67
2022/01/18 12:37:10;;;;;;;5.53;2.55;;;7.50;99.90;;;;;;5040586;28;20451;-68
2022/01/18 12:39:50;;;;;;;6.20;2.08;;;7.20;99.90;;;;;;5032038;28;20413;-67
2022/01/18 12:45:13;;;;;;;6.28;2.33;;;7.00;99.90;;;;;;5033676;28;20064;-67
2022/01/18 12:47:44;;;;;;;5.30;2.20;;;6.90;99.90;;;;;;5033723;28;20041;-67
2022/01/18 12:50:12;;;;;;;8.30;1.90;;;7.00;99.90;;;;;;5035192;28;20132;-67
2022/01/18 12:52:48;;;;;;;6.07;1.60;;;7.20;99.90;;;;;;5036478;28;20107;-66
2022/01/18 12:55:29;;;;;;;5.63;1.63;;;7.50;99.90;;;;;;5040963;28;20410;-68
2022/01/18 12:58:07;;;;;;;4.88;1.52;;;7.80;99.90;;;;;;5036187;28;20088;-68
2022/01/18 13:00:37;;;;;;;12.18;3.90;;;8.00;99.90;;;;;;5030522;28;20497;-67
2022/01/18 13:03:05;;;;;;;9.77;3.17;;;8.00;99.90;;;;;;5025937;28;20057;-67
2022/01/18 13:05:43;;;;;;;5.82;2.28;;;8.10;99.90;;;;;;5032697;28;20029;-67
2022/01/18 13:08:13;;;;;;;5.00;1.73;;;7.90;99.90;;;;;;5031275;28;20404;-67
2022/01/18 13:10:43;;;;;;;6.45;1.50;;;7.70;99.90;;;;;;5032282;28;20115;-68
2022/01/18 13:13:14;;;;;;;3.95;1.50;;;7.60;99.90;;;;;;5031628;28;20048;-68
2022/01/18 13:26:54;;;;;;;3.53;1.10;;;7.20;99.90;;;;;;5029697;28;20096;-67
2022/01/18 13:29:25;;;;;;;3.83;1.20;;;8.00;99.90;;;;;;5035811;28;20523;-67
2022/01/18 13:32:17;;;;;;;3.55;1.25;;;10.80;99.90;;;;;;5032119;28;20033;-68
2022/01/18 13:34:47;;;;;;;4.30;1.05;;;13.50;99.90;;;;;;5038352;28;20052;-67
2022/01/18 13:37:17;;;;;;;1.88;0.80;;;15.30;99.90;;;;;;5040568;28;20142;-67
2022/01/18 13:39:50;;;;;;;3.85;1.15;;;16.80;99.90;;;;;;5030885;28;20045;-67
2022/01/18 13:42:28;;;;;;;3.30;1.05;;;18.00;99.90;;;;;;5036622;28;20412;-67
2022/01/18 13:45:19;;;;;;;2.05;0.90;;;18.90;99.90;;;;;;5024133;28;20038;-67
2022/01/18 13:47:55;;;;;;;3.90;1.05;;;19.50;99.90;;;;;;5028720;28;20564;-67
2022/01/18 13:50:53;;;;;;;2.80;1.20;;;19.80;99.90;;;;;;5028624;28;20520;-67
2022/01/18 13:53:33;;;;;;;2.67;1.00;;;19.60;99.90;;;;;;5029551;28;20492;-67
2022/01/18 13:56:18;;;;;;;2.35;0.88;;;19.50;99.90;;;;;;5029968;28;20049;-67
2022/01/18 13:58:47;;;;;;;3.58;1.65;;;19.20;99.90;;;;;;5016440;28;20065;-67
2022/01/18 14:01:18;;;;;;;2.70;1.27;;;17.60;99.90;;;;;;5016061;28;20050;-67
2022/01/18 14:03:48;;;;;;;3.08;1.08;;;15.90;99.90;;;;;;5013305;28;20037;-67
2022/01/18 14:06:17;;;;;;;2.20;0.80;;;14.40;99.90;;;;;;5038629;28;20041;-67
2022/01/18 14:08:53;;;;;;;2.95;1.17;;;12.60;99.90;;;;;;5043793;28;20034;-68
2022/01/18 14:11:26;;;;;;;4.10;1.73;;;11.50;99.90;;;;;;5034957;28;20049;-67
2022/01/18 14:13:54;;;;;;;4.93;1.98;;;10.50;99.90;;;;;;5043256;28;20052;-67
2022/01/18 14:16:33;;;;;;;6.00;2.05;;;9.70;99.90;;;;;;5034359;28;20045;-66
2022/01/18 14:19:06;;;;;;;5.18;2.03;;;9.20;99.90;;;;;;5040972;28;20041;-67
2022/01/18 14:21:56;;;;;;;4.10;1.80;;;8.70;99.90;;;;;;5040047;28;20049;-67
2022/01/18 14:24:26;;;;;;;4.85;1.90;;;8.30;99.90;;;;;;5032232;28;20433;-67
2022/01/18 14:26:53;;;;;;;4.75;2.25;;;7.90;99.90;;;;;;5046333;28;20052;-66
2022/01/18 14:29:25;;;;;;;3.25;1.60;;;7.60;99.90;;;;;;5034644;28;20369;-67
2022/01/18 14:31:59;;;;;;;7.53;2.80;;;7.40;99.90;;;;;;5031916;28;20046;-67